Time;durP1;ratioP1;P1;durP2;ratioP2;P2;SDS_P1;SDS_P2;PMS_P1;PMS_P2;Temp;Humidity;BMP_temperature;BMP_pressure;BME280_temperature;BME280_humidity;BME280_pressure;Samples;Min_cycle;Max_cycle;Signal;HPM_P1;HPM_P2
2023/09/20 00:00:59;;;;;;;6.30;2.15;;;17.70;99.90;;;-144.05;56.59;56946.53;5055880;28;20032;-81
2023/09/20 00:03:28;;;;;;;10.35;2.25;;;15.50;99.90;;;-144.05;56.11;56929.53;5069827;28;20390;-81
2023/09/20 00:05:54;;;;;;;5.78;1.40;;;17.70;99.90;;;-144.05;56.29;56948.66;5069027;28;20445;-80
2023/09/20 00:08:20;;;;;;;5.38;1.70;;;;;;;-144.05;56.83;56955.03;5073206;28;20029;-80
2023/09/20 00:10:46;;;;;;;5.85;1.70;;;15.50;99.90;;;-144.05;57.10;56925.28;5057848;28;20044;-79
2023/09/20 00:13:13;;;;;;;6.75;2.03;;;;;;;-144.05;56.73;56918.94;5067871;28;20049;-81
2023/09/20 00:15:43;;;;;;;6.55;1.98;;;15.50;99.90;;;-144.05;57.24;56925.28;5067679;28;20397;-80
2023/09/20 00:18:10;;;;;;;5.90;2.03;;;15.50;99.90;;;-144.05;57.73;56921.06;5052285;28;20115;-79
2023/09/20 00:20:39;;;;;;;7.40;1.90;;;15.70;99.90;;;-144.05;57.69;56938.03;5051561;28;20025;-80
2023/09/20 00:23:05;;;;;;;8.65;1.88;;;17.50;99.90;;;-144.05;57.65;56929.53;5068013;28;20029;-79
2023/09/20 00:25:31;;;;;;;6.57;2.13;;;15.30;99.90;;;-144.05;57.43;56923.19;5052786;28;20482;-80
2023/09/20 00:27:57;;;;;;;4.72;1.70;;;15.70;99.90;;;-144.05;57.32;56904.06;5052576;28;20107;-82
2023/09/20 00:30:23;;;;;;;5.85;1.83;;;18.80;99.90;;;-144.05;57.19;56938.03;5052025;28;20021;-80
2023/09/20 00:32:49;;;;;;;4.70;1.65;;;19.30;99.90;;;-144.05;57.01;56940.16;5052206;28;20025;-81
2023/09/20 00:35:17;;;;;;;5.43;1.63;;;17.50;99.90;;;-144.05;57.45;56916.81;5052251;28;20033;-79
2023/09/20 00:37:45;;;;;;;4.80;1.25;;;17.60;99.90;;;-144.05;57.68;56933.78;5052316;28;20124;-81
2023/09/20 00:40:18;;;;;;;3.72;1.65;;;15.50;99.90;;;-144.05;57.70;56933.78;5067509;28;20505;-80
2023/09/20 00:42:50;;;;;;;5.18;2.00;;;15.40;99.90;;;-144.05;57.97;56927.41;5052348;28;20029;-81
2023/09/20 00:45:19;;;;;;;2.88;1.58;;;15.40;99.90;;;-144.05;58.31;56938.03;5052530;28;20181;-79
2023/09/20 00:47:57;;;;;;;2.97;1.38;;;17.50;99.90;;;-144.05;57.93;56948.66;5053016;28;20033;-80
2023/09/20 00:50:27;;;;;;;5.18;1.90;;;14.90;99.90;;;-144.05;57.83;56921.06;5052373;28;20020;-82
2023/09/20 00:52:56;;;;;;;6.80;1.58;;;18.00;99.90;;;-144.05;58.62;56942.28;5052624;28;20044;-79
2023/09/20 00:55:29;;;;;;;6.63;1.65;;;17.40;99.90;;;-144.05;58.00;56918.94;5052274;28;20493;-77
2023/09/20 00:58:07;;;;;;;5.05;1.90;;;18.60;99.90;;;-144.05;58.24;56944.41;5067226;28;20033;-81
2023/09/20 01:00:37;;;;;;;6.85;1.80;;;18.70;99.90;;;-144.05;57.93;56931.66;5064452;28;20029;-79
2023/09/20 01:03:05;;;;;;;5.88;1.83;;;19.00;99.90;;;-144.05;57.82;56923.19;5070378;28;20405;-79
2023/09/20 01:05:37;;;;;;;6.63;1.80;;;19.00;99.90;;;-144.05;58.06;56925.28;5060006;28;20527;-79
2023/09/20 01:08:06;;;;;;;5.40;2.17;;;14.80;99.90;;;-144.05;58.75;56942.28;5051596;28;20033;-80
2023/09/20 01:10:36;;;;;;;7.32;1.83;;;15.20;99.90;;;-144.05;57.82;56948.66;5085431;28;20078;-80
2023/09/20 01:13:06;;;;;;;4.80;1.85;;;18.50;99.90;;;-144.05;58.18;56940.16;5070284;28;20354;-79
2023/09/20 01:15:34;;;;;;;6.93;1.75;;;15.60;99.90;;;-144.05;58.82;56940.16;5073309;28;20445;-80
2023/09/20 01:18:04;;;;;;;6.35;1.58;;;19.10;99.90;;;-144.05;58.37;56923.19;5067458;28;20036;-81
2023/09/20 01:20:36;;;;;;;6.22;2.20;;;18.40;99.90;;;-144.05;58.49;56946.53;5066482;28;20032;-79
2023/09/20 01:23:02;;;;;;;5.15;1.63;;;18.80;99.90;;;-144.05;58.66;56912.56;5073991;28;20410;-80
2023/09/20 01:25:35;;;;;;;6.53;1.50;;;;;;;-144.05;58.53;56906.19;5075425;28;20029;-80
2023/09/20 01:28:08;;;;;;;7.22;1.35;;;17.50;99.90;;;-144.05;59.17;56921.06;5075273;28;20029;-79
2023/09/20 01:30:41;;;;;;;7.03;1.83;;;19.00;99.90;;;-144.05;59.78;56938.03;5074665;28;20056;-79
2023/09/20 01:33:09;;;;;;;5.43;1.88;;;17.40;99.90;;;-144.05;60.38;56929.53;5090835;28;20037;-78
2023/09/20 01:35:37;;;;;;;6.43;2.03;;;15.40;99.90;;;-144.05;60.78;56923.19;5060534;28;20028;-78
2023/09/20 01:38:07;;;;;;;6.80;1.65;;;18.70;99.90;;;-144.05;60.29;56904.06;5055060;28;20268;-79
2023/09/20 01:40:34;;;;;;;5.22;1.88;;;18.90;99.90;;;-144.05;60.19;56923.19;5070119;28;20441;-81
2023/09/20 01:43:04;;;;;;;6.13;2.30;;;17.40;99.90;;;-144.05;60.43;56959.28;5054969;28;20079;-78
2023/09/20 01:45:30;;;;;;;4.05;1.50;;;15.20;99.90;;;-144.05;60.67;56916.81;5066769;28;20516;-81
2023/09/20 01:48:08;;;;;;;4.97;2.03;;;18.90;99.90;;;-144.05;60.79;56918.94;5073059;28;20139;-79
2023/09/20 01:50:36;;;;;;;8.40;2.05;;;15.20;99.90;;;-144.05;61.26;56940.16;5074778;28;20060;-80
2023/09/20 01:53:08;;;;;;;6.35;1.60;;;18.70;99.90;;;-144.05;60.97;56929.53;5074869;28;20082;-78
2023/09/20 01:55:37;;;;;;;5.72;1.52;;;18.40;99.90;;;-144.05;60.99;56959.28;5075452;28;20028;-79
2023/09/20 01:58:07;;;;;;;5.93;2.00;;;;;;;-144.05;61.58;56923.19;5075374;28;20021;-80
2023/09/20 02:00:37;;;;;;;6.22;1.65;;;18.80;99.90;;;-144.05;61.63;56916.81;5074896;28;20028;-79
2023/09/20 02:03:13;;;;;;;4.00;1.67;;;18.60;99.90;;;-144.05;61.84;56931.66;5081515;28;20032;-79
2023/09/20 02:05:40;;;;;;;8.32;2.10;;;18.80;99.90;;;-144.05;62.48;56918.94;5069879;28;20059;-80
2023/09/20 02:08:08;;;;;;;5.93;1.70;;;17.00;99.90;;;-144.05;62.65;56916.81;5055158;28;20044;-80
2023/09/20 02:10:36;;;;;;;8.57;2.05;;;18.60;99.90;;;-144.05;63.02;56931.66;5072919;28;20036;-79
2023/09/20 02:13:03;;;;;;;11.32;2.00;;;15.20;99.90;;;-144.05;61.97;56948.66;5057465;28;20064;-78
2023/09/20 02:15:35;;;;;;;10.32;2.20;;;14.90;99.90;;;-144.05;62.54;56916.81;5069327;28;20094;-80
2023/09/20 02:18:05;;;;;;;9.82;1.77;;;14.90;99.90;;;-144.05;62.94;56961.41;5054071;28;20029;-77
2023/09/20 02:20:36;;;;;;;3.30;1.67;;;14.90;99.90;;;-144.05;62.83;56935.91;5052182;28;20032;-78
2023/09/20 02:23:06;;;;;;;9.48;1.90;;;16.90;99.90;;;-144.05;62.58;56925.28;5068956;28;20056;-79
2023/09/20 02:25:32;;;;;;;7.50;1.70;;;;;;;-144.05;62.53;56938.03;5077752;28;20033;-81
2023/09/20 02:28:02;;;;;;;5.30;2.08;;;16.90;99.90;;;-144.05;62.34;56931.66;5052475;28;20508;-80
2023/09/20 02:30:35;;;;;;;2.97;1.33;;;18.50;99.90;;;-144.05;63.61;56908.31;5065445;28;20035;-80
2023/09/20 02:33:05;;;;;;;4.95;1.55;;;16.90;99.90;;;-144.05;63.98;56925.28;5072321;28;20125;-80
2023/09/20 02:35:33;;;;;;;5.63;2.58;;;14.80;99.90;;;-144.05;63.15;56925.28;5075275;28;20103;-81
2023/09/20 02:38:04;;;;;;;5.18;1.80;;;16.80;99.90;;;-144.05;62.90;56912.56;5075777;28;20017;-78
2023/09/20 02:40:30;;;;;;;9.18;1.95;;;16.80;99.90;;;-144.05;63.11;56914.69;5073842;28;20032;-80
2023/09/20 02:42:58;;;;;;;5.63;1.98;;;14.30;99.90;;;-144.05;63.66;56927.41;5090158;28;20143;-80
2023/09/20 02:45:29;;;;;;;9.30;2.10;;;15.10;99.90;;;-144.05;63.72;56935.91;5090304;28;20055;-80
2023/09/20 02:47:56;;;;;;;3.97;1.83;;;16.80;99.90;;;-144.05;64.28;56929.53;5073165;28;20120;-79
2023/09/20 02:50:24;;;;;;;3.53;1.90;;;18.10;99.90;;;-144.05;64.86;56935.91;5052975;28;20029;-79
2023/09/20 02:52:52;;;;;;;3.88;1.58;;;16.70;99.90;;;-144.05;64.84;56927.41;5068389;28;20536;-80
2023/09/20 02:55:22;;;;;;;4.10;1.83;;;18.30;99.90;;;-144.05;64.79;56918.94;5054003;28;20036;-79
2023/09/20 02:57:54;;;;;;;7.25;2.20;;;14.30;99.90;;;-144.05;65.09;56923.19;5069170;28;20036;-77
2023/09/20 03:00:31;;;;;;;5.43;1.85;;;14.60;99.90;;;-144.05;65.32;56921.06;5054148;28;20090;-80
2023/09/20 03:03:04;;;;;;;9.07;2.10;;;17.70;99.90;;;-144.05;65.64;56878.56;5054519;28;20036;-79
2023/09/20 03:05:34;;;;;;;9.85;2.08;;;17.30;99.90;;;-144.05;65.15;56891.31;5076960;28;20032;-76
2023/09/20 03:08:01;;;;;;;4.95;1.73;;;14.10;99.90;;;-144.05;65.92;56967.78;5075623;28;20059;-76
2023/09/20 03:10:28;;;;;;;5.85;1.83;;;18.00;99.90;;;-144.05;65.98;56925.28;5090220;28;20013;-78
2023/09/20 03:12:57;;;;;;;8.20;2.10;;;18.20;99.90;;;-144.05;66.56;56933.78;5079205;28;20036;-78
2023/09/20 03:15:26;;;;;;;5.70;1.70;;;16.50;99.90;;;-144.05;65.87;56938.03;5083349;28;20054;-77
2023/09/20 03:18:02;;;;;;;5.50;1.95;;;16.60;99.90;;;-144.05;66.67;56923.19;5093041;28;20032;-79
2023/09/20 03:20:32;;;;;;;;;;;16.50;99.90;;;-144.05;66.87;56921.06;5091532;28;20039;-76
2023/09/20 03:23:03;;;;;;;9.65;1.92;;;14.60;99.90;;;-144.05;66.80;56938.03;5092265;28;19915;-77
2023/09/20 03:25:34;;;;;;;8.07;2.42;;;14.20;99.90;;;-144.05;66.63;56927.41;5107129;28;20138;-77
2023/09/20 03:28:00;;;;;;;4.93;2.08;;;14.30;99.90;;;-144.05;66.92;56921.06;5091287;28;20013;-77
2023/09/20 03:30:28;;;;;;;5.35;1.80;;;16.40;99.90;;;-144.05;66.59;56933.78;5092989;28;20044;-78
2023/09/20 03:32:56;;;;;;;7.55;1.88;;;17.80;99.90;;;-144.05;66.76;56942.28;5111647;28;20027;-78
2023/09/20 03:35:21;;;;;;;7.70;2.15;;;13.90;99.90;;;-144.05;66.66;56899.81;5081239;28;20045;-82
2023/09/20 03:37:48;;;;;;;6.07;1.75;;;14.00;99.90;;;-144.05;66.86;56925.28;5074321;28;20039;-81
2023/09/20 03:40:17;;;;;;;6.78;2.00;;;17.20;99.90;;;-144.05;67.59;56921.06;5063694;28;20447;-82
2023/09/20 03:42:48;;;;;;;7.22;2.30;;;17.60;99.90;;;-144.05;68.10;56925.28;5069028;28;20032;-77
2023/09/20 03:45:16;;;;;;;8.10;1.92;;;17.60;99.90;;;-144.05;68.35;56910.44;5054553;28;20098;-76
2023/09/20 03:47:47;;;;;;;8.45;2.20;;;17.60;99.90;;;-144.05;67.88;56921.06;5058893;28;20032;-80
2023/09/20 03:50:13;;;;;;;9.68;2.53;;;14.50;99.90;;;-144.05;68.06;56933.78;5078823;28;20032;-81
2023/09/20 03:52:40;;;;;;;5.90;1.98;;;14.20;99.90;;;-144.05;67.56;56935.91;5058734;28;20567;-81
2023/09/20 03:55:07;;;;;;;7.63;2.80;;;17.40;99.90;;;-144.05;67.95;56912.56;5068731;28;20382;-80
2023/09/20 03:57:35;;;;;;;5.65;1.90;;;17.10;99.90;;;-144.05;68.60;56935.91;5068970;28;20103;-80
2023/09/20 04:00:06;;;;;;;9.35;2.08;;;16.90;99.90;;;-144.05;69.23;56929.53;5052492;28;20490;-79
2023/09/20 04:02:34;;;;;;;4.35;2.03;;;16.90;99.90;;;-144.05;68.94;56923.19;5077444;28;20055;-83
2023/09/20 04:05:06;;;;;;;6.18;1.90;;;;;;;-144.05;68.66;56921.06;5054292;28;20057;-82
2023/09/20 04:07:32;;;;;;;3.92;1.67;;;16.70;99.90;;;-144.05;67.99;56916.81;5062986;28;20025;-82
2023/09/20 04:09:58;;;;;;;5.40;2.20;;;17.20;99.90;;;-144.05;68.88;56925.28;5080940;22;20173;-77
2023/09/20 04:12:24;;;;;;;9.60;2.45;;;14.00;99.90;;;-144.05;68.08;56935.91;5068921;28;20045;-77
2023/09/20 04:14:51;;;;;;;5.10;2.05;;;17.00;99.90;;;-144.05;68.06;56921.06;5052595;28;20025;-78
2023/09/20 04:17:17;;;;;;;4.93;1.65;;;17.70;99.90;;;-144.05;68.02;56904.06;5053760;28;20028;-76
2023/09/20 04:19:44;;;;;;;5.45;1.98;;;13.80;99.90;;;-144.05;68.06;56923.19;5051927;28;20104;-76
2023/09/20 04:22:10;;;;;;;4.97;1.67;;;17.60;99.90;;;-144.05;68.25;56916.81;5053959;28;20057;-78
2023/09/20 04:24:36;;;;;;;5.68;1.80;;;17.50;99.90;;;-144.05;67.84;56946.53;5056269;28;20083;-77
2023/09/20 04:27:03;;;;;;;4.38;1.77;;;14.30;99.90;;;-144.05;68.19;56918.94;5061838;28;20496;-77
2023/09/20 04:29:31;;;;;;;8.57;2.22;;;14.20;99.90;;;-144.05;68.20;56950.78;5056906;28;20024;-77
2023/09/20 04:31:58;;;;;;;5.88;1.92;;;16.10;99.90;;;-144.05;68.47;56946.53;5078934;28;20025;-77
2023/09/20 04:34:24;;;;;;;5.13;2.13;;;14.00;99.90;;;-144.05;67.67;56918.94;5054650;28;20044;-77
2023/09/20 04:36:53;;;;;;;6.45;2.00;;;17.40;99.90;;;-144.05;67.86;56916.81;5060125;28;20025;-75
2023/09/20 04:39:24;;;;;;;4.97;1.80;;;16.10;99.90;;;-144.05;68.34;56935.91;5056273;28;20525;-76
2023/09/20 04:41:51;;;;;;;5.80;1.80;;;14.10;99.90;;;-144.05;68.04;56927.41;5054980;28;20432;-78
2023/09/20 04:44:17;;;;;;;11.57;2.38;;;14.10;99.90;;;-144.05;68.66;56901.94;5054554;28;20104;-77
2023/09/20 04:46:43;;;;;;;4.53;1.80;;;13.50;99.90;;;-144.05;68.86;56918.94;5052768;28;20033;-76
2023/09/20 04:49:10;;;;;;;4.18;1.80;;;14.40;99.90;;;-144.05;68.61;56933.78;5055208;28;20047;-77
2023/09/20 04:51:37;;;;;;;7.15;1.85;;;17.60;99.90;;;-144.05;68.25;56931.66;5057272;28;20036;-77
2023/09/20 04:54:06;;;;;;;5.43;2.00;;;14.30;99.90;;;-144.05;68.38;56923.19;5057164;28;20448;-76
2023/09/20 04:56:32;;;;;;;4.75;2.03;;;16.20;99.90;;;-144.05;68.57;56906.19;5056194;28;20025;-77
2023/09/20 04:58:58;;;;;;;4.32;1.63;;;14.20;99.90;;;-144.05;69.16;56921.06;5057225;28;20040;-77
2023/09/20 05:01:24;;;;;;;5.60;1.55;;;17.40;99.90;;;-144.05;69.16;56912.56;5057230;28;20028;-76
2023/09/20 05:03:51;;;;;;;6.35;1.60;;;17.70;99.90;;;-144.05;68.43;56897.69;5057759;28;20469;-76
2023/09/20 05:06:19;;;;;;;8.05;1.92;;;14.40;99.90;;;-144.05;68.27;56912.56;5056061;28;20029;-78
2023/09/20 05:08:45;;;;;;;6.63;2.22;;;14.20;99.90;;;-144.05;68.16;56927.41;5061070;28;20038;-78
2023/09/20 05:11:13;;;;;;;4.88;2.08;;;14.30;99.90;;;-144.05;69.19;56908.31;5077556;28;20557;-78
2023/09/20 05:13:41;;;;;;;6.40;2.58;;;13.90;99.90;;;-144.05;68.96;56916.81;5077395;28;20136;-77
2023/09/20 05:16:08;;;;;;;5.07;1.77;;;17.00;99.90;;;-144.05;69.32;56929.53;5076926;28;20031;-77
2023/09/20 05:18:34;;;;;;;7.10;2.33;;;17.70;99.90;;;-144.05;69.41;56906.19;5057501;28;20021;-78
2023/09/20 05:21:00;;;;;;;8.05;1.92;;;14.10;99.90;;;-144.05;69.04;56944.41;5056902;28;20029;-77
2023/09/20 05:23:26;;;;;;;3.88;1.75;;;17.60;99.90;;;-144.05;68.57;56929.53;5063500;28;20040;-76
2023/09/20 05:25:53;;;;;;;4.60;1.60;;;14.60;99.90;;;-144.05;69.09;56910.44;5056212;28;20498;-78
2023/09/20 05:28:19;;;;;;;6.93;2.17;;;;;;;-144.05;68.50;56910.44;5056853;28;20025;-76
2023/09/20 05:30:45;;;;;;;6.00;1.98;;;14.60;99.90;;;-144.05;68.65;56929.53;5055365;28;20116;-76
2023/09/20 05:33:12;;;;;;;4.57;1.83;;;14.30;99.90;;;-144.05;69.00;56935.91;5057274;28;20064;-76
2023/09/20 05:35:40;;;;;;;5.13;1.60;;;14.40;99.90;;;-144.05;68.99;56916.81;5057027;28;20033;-76
2023/09/20 05:38:13;;;;;;;4.70;1.80;;;17.90;99.90;;;-144.05;68.78;56929.53;5063994;28;20032;-78
2023/09/20 05:40:39;;;;;;;5.28;1.95;;;17.70;99.90;;;-144.05;69.54;56918.94;5057388;28;20048;-77
2023/09/20 05:43:06;;;;;;;4.20;2.00;;;16.20;99.90;;;-144.05;68.99;56918.94;5056352;28;20447;-78
2023/09/20 05:45:36;;;;;;;5.53;1.85;;;14.50;99.90;;;-144.05;69.31;56929.53;5058289;28;20033;-78
2023/09/20 05:48:02;;;;;;;4.68;1.65;;;17.60;99.90;;;-144.05;68.91;56921.06;5057491;28;20517;-76
2023/09/20 05:50:34;;;;;;;5.95;1.80;;;14.80;99.90;;;-144.05;69.37;56938.03;5057108;28;20032;-78
2023/09/20 05:53:03;;;;;;;6.05;1.70;;;14.50;99.90;;;-144.05;69.50;56918.94;5057058;28;20025;-78
2023/09/20 05:55:33;;;;;;;3.28;1.58;;;18.00;99.90;;;-144.05;68.31;56916.81;5069215;28;20021;-77
2023/09/20 05:58:02;;;;;;;2.28;1.92;;;17.10;99.90;;;-144.05;68.50;56933.78;5076451;28;20035;-77
2023/09/20 06:00:29;;;;;;;4.00;1.92;;;14.70;99.90;;;-144.05;68.15;56918.94;5075425;28;20040;-77
2023/09/20 06:02:57;;;;;;;4.50;1.60;;;16.60;99.90;;;-144.05;68.33;56933.78;5076672;28;20020;-78
2023/09/20 06:05:26;;;;;;;3.65;1.67;;;16.60;99.90;;;-144.05;67.95;56912.56;5076328;28;20031;-77
2023/09/20 06:07:53;;;;;;;6.70;2.22;;;15.00;99.90;;;-144.05;67.83;56925.28;5076137;28;20033;-76
2023/09/20 06:10:22;;;;;;;8.20;2.10;;;16.70;99.90;;;-144.05;66.93;56929.53;5065587;28;20382;-78
2023/09/20 06:12:50;;;;;;;5.97;1.73;;;15.00;99.90;;;-144.05;67.79;56921.06;5056175;28;20512;-77
2023/09/20 06:15:17;;;;;;;6.65;2.42;;;16.80;99.90;;;-144.05;68.04;56897.69;5056505;28;20082;-77
2023/09/20 06:17:44;;;;;;;3.08;1.67;;;18.10;99.90;;;-144.05;66.86;56929.53;5056265;28;20032;-78
2023/09/20 06:20:19;;;;;;;4.82;1.85;;;15.10;99.90;;;-144.05;67.11;56927.41;5054989;28;20123;-76
2023/09/20 06:22:48;;;;;;;4.05;1.73;;;18.60;99.90;;;-144.05;67.08;56944.41;5059139;28;20064;-77
2023/09/20 06:25:21;;;;;;;6.55;1.92;;;18.30;99.90;;;-144.05;66.83;56916.81;5058823;28;20033;-77
2023/09/20 06:27:53;;;;;;;5.70;1.70;;;17.00;99.90;;;-144.05;66.63;56931.66;5055475;28;20086;-78
2023/09/20 06:30:21;;;;;;;4.00;1.70;;;;;;;-144.05;66.38;56931.66;5055452;28;20104;-78
2023/09/20 06:32:49;;;;;;;5.47;1.73;;;17.00;99.90;;;-144.05;65.72;56940.16;5054311;28;20052;-78
2023/09/20 06:35:15;;;;;;;3.00;1.67;;;18.80;99.90;;;-144.05;64.15;56950.78;5055874;28;20493;-77
2023/09/20 06:37:45;;;;;;;3.63;1.50;;;18.90;99.90;;;-144.05;63.25;56918.94;5056115;28;20734;-79
2023/09/20 06:40:22;;;;;;;5.15;1.70;;;19.20;99.90;;;-144.05;62.04;56925.28;5055651;28;20063;-78
2023/09/20 06:42:50;;;;;;;4.72;1.88;;;19.80;99.90;;;-144.05;61.08;56931.66;5055980;28;20104;-79
2023/09/20 06:45:18;;;;;;;7.60;2.45;;;18.00;99.90;;;-144.05;60.40;56948.66;5056490;28;20392;-78
2023/09/20 06:47:45;;;;;;;5.25;1.73;;;;;;;-144.05;59.17;56916.81;5055991;28;20060;-77
2023/09/20 06:50:13;;;;;;;8.20;2.25;;;18.50;99.90;;;-144.05;59.72;56940.16;5055070;28;20037;-77
2023/09/20 06:52:42;;;;;;;6.18;1.42;;;20.00;99.90;;;-144.05;59.82;56938.03;5054481;28;20082;-76
2023/09/20 06:55:17;;;;;;;6.95;1.88;;;18.60;99.90;;;-144.05;59.44;56942.28;5055319;28;20048;-78
2023/09/20 06:57:43;;;;;;;4.15;1.70;;;20.40;99.90;;;-144.05;59.11;56961.41;5055279;28;20021;-77
2023/09/20 07:00:26;;;;;;;3.63;1.83;;;17.30;99.90;;;-144.05;58.29;56931.66;5055302;28;20116;-77
2023/09/20 07:02:56;;;;;;;5.15;1.90;;;17.60;99.90;;;-144.05;58.21;56950.78;5055261;28;20035;-77
2023/09/20 07:05:25;;;;;;;5.13;1.48;;;20.80;99.90;;;-144.05;58.14;56933.78;5053258;28;20082;-77
2023/09/20 07:07:51;;;;;;;6.43;1.65;;;17.00;99.90;;;-144.05;58.87;56912.56;5052218;28;20025;-78
2023/09/20 07:10:17;;;;;;;5.25;1.42;;;16.80;99.90;;;-144.05;59.72;56931.66;5068174;28;20350;-77
2023/09/20 07:12:45;;;;;;;3.25;1.65;;;16.50;99.90;;;-144.05;59.79;56938.03;5073540;28;20041;-76
2023/09/20 07:15:16;;;;;;;4.15;1.60;;;19.20;99.90;;;-144.05;61.61;56921.06;5074564;28;20020;-78
2023/09/20 07:17:43;;;;;;;4.07;1.73;;;16.50;99.90;;;-144.05;61.60;56925.28;5074728;28;20028;-77
2023/09/20 07:20:17;;;;;;;7.55;1.85;;;18.40;99.90;;;-144.05;61.99;56916.81;5072663;28;20024;-78
2023/09/20 07:22:44;;;;;;;6.05;1.52;;;19.20;99.90;;;-144.05;61.76;56940.16;5074544;28;20029;-76
2023/09/20 07:25:19;;;;;;;3.90;1.83;;;18.80;99.90;;;-144.05;61.68;56931.66;5074963;28;20028;-76
2023/09/20 07:27:49;;;;;;;5.50;1.77;;;19.60;99.90;;;-144.05;61.18;56944.41;5074290;28;20016;-76
2023/09/20 07:30:21;;;;;;;6.95;2.00;;;18.50;99.90;;;-144.05;61.80;56935.91;5074032;28;20085;-78
2023/09/20 07:32:51;;;;;;;3.95;2.00;;;20.00;99.90;;;-144.05;60.39;56929.53;5075837;28;20094;-78
2023/09/20 07:35:25;;;;;;;5.53;1.55;;;18.40;99.90;;;-144.05;60.67;56933.78;5073979;28;20024;-77
2023/09/20 07:37:57;;;;;;;4.00;1.40;;;19.80;99.90;;;-144.05;60.73;56959.28;5074479;28;20497;-77
2023/09/20 07:40:31;;;;;;;6.65;1.83;;;20.10;99.90;;;-144.05;60.52;56942.28;5074032;28;20259;-77
2023/09/20 07:43:04;;;;;;;3.28;1.52;;;19.20;99.90;;;-144.05;60.51;56957.16;5074747;28;20033;-77
2023/09/20 07:45:38;;;;;;;6.10;1.65;;;19.00;99.90;;;-144.05;60.50;56938.03;5074483;28;20031;-76
2023/09/20 07:48:13;;;;;;;3.10;1.50;;;19.00;99.90;;;-144.05;60.30;56946.53;5072663;28;20067;-75
2023/09/20 07:50:50;;;;;;;5.37;1.40;;;19.80;99.90;;;-144.05;59.34;56942.28;5073733;28;20081;-78
2023/09/20 07:53:21;;;;;;;4.65;1.75;;;19.40;99.90;;;-144.05;57.97;56938.03;5073212;28;20336;-77
2023/09/20 07:56:03;;;;;;;3.20;1.50;;;20.40;99.90;;;-144.05;57.01;56935.91;5073305;28;20576;-77
2023/09/20 07:58:36;;;;;;;3.85;1.40;;;19.40;99.90;;;-144.05;56.21;56961.41;5074095;28;20031;-77
2023/09/20 08:01:12;;;;;;;4.50;1.88;;;19.60;99.90;;;-144.05;56.21;56938.03;5076227;28;20034;-76
2023/09/20 08:03:45;;;;;;;;;;;19.70;99.90;;;-144.05;56.16;56965.66;5074160;28;20035;-76
2023/09/20 08:06:12;;;;;;;5.20;1.50;;;21.30;99.90;;;-144.05;54.27;56965.66;5064516;28;19978;-76
2023/09/20 08:08:38;;;;;;;4.25;1.50;;;20.20;99.90;;;-144.05;54.21;56972.03;5057115;28;20036;-78
2023/09/20 08:11:03;;;;;;;4.75;2.00;;;20.30;99.90;;;-144.05;53.45;56969.91;5072682;28;20039;-77
2023/09/20 08:13:29;;;;;;;4.57;1.55;;;18.90;99.90;;;-144.05;54.20;56957.16;5075457;28;20033;-78
2023/09/20 08:15:55;;;;;;;4.10;1.77;;;20.30;99.90;;;-144.05;53.25;56940.16;5073313;28;20027;-76
2023/09/20 08:21:05;;;;;;;5.00;1.13;;;22.20;99.90;;;-144.05;52.38;56946.53;5074219;28;20411;-77
2023/09/20 08:59:53;;;;;;;3.22;1.17;;;21.40;99.90;;;-144.05;54.12;56944.41;5077410;28;20039;-79
2023/09/20 09:02:22;;;;;;;2.15;1.10;;;18.90;99.90;;;-144.05;53.19;56965.66;5078004;28;20039;-77
2023/09/20 09:04:54;;;;;;;2.78;1.13;;;18.80;99.90;;;-144.05;53.16;56976.28;5077669;28;20050;-77
2023/09/20 09:07:23;;;;;;;1.70;1.05;;;18.40;99.90;;;-144.05;54.09;56965.66;5076374;28;20028;-76
2023/09/20 09:09:51;;;;;;;2.80;1.50;;;20.30;99.90;;;-144.05;54.36;56976.28;5076681;28;20074;-75
2023/09/20 09:12:17;;;;;;;4.40;1.20;;;21.90;99.90;;;-144.05;54.32;56989.00;5058274;28;20031;-76
2023/09/20 09:14:43;;;;;;;3.83;1.30;;;21.40;99.90;;;-144.05;54.34;56963.53;5056015;28;20037;-78
2023/09/20 09:17:10;;;;;;;2.95;1.15;;;20.20;99.90;;;-144.05;54.83;56963.53;5056761;28;20028;-77
2023/09/20 09:19:38;;;;;;;3.55;1.50;;;21.70;99.90;;;-144.05;54.13;56963.53;5056671;28;20021;-78
2023/09/20 09:22:06;;;;;;;3.53;1.25;;;20.10;99.90;;;-144.05;54.71;56944.41;5062217;28;20048;-78
2023/09/20 09:24:45;;;;;;;5.50;1.48;;;20.10;99.90;;;-144.05;54.80;56974.16;5059695;28;20127;-76
2023/09/20 09:27:12;;;;;;;3.28;1.33;;;21.10;99.90;;;-144.05;54.06;56976.28;5056297;28;20025;-79
2023/09/20 09:29:41;;;;;;;10.63;3.47;;;19.60;99.90;;;-144.05;54.66;56940.16;5056923;28;20025;-76
2023/09/20 09:32:07;;;;;;;8.60;2.65;;;20.30;99.90;;;-144.05;55.21;56967.78;5055815;28;20025;-77
2023/09/20 09:34:34;;;;;;;5.55;1.52;;;21.70;99.90;;;-144.05;54.03;56963.53;5055545;28;20116;-78
2023/09/20 09:37:00;;;;;;;8.70;2.47;;;20.50;99.90;;;-144.05;53.77;56933.78;5056282;28;20021;-77
2023/09/20 09:39:27;;;;;;;3.40;1.35;;;19.10;99.90;;;-144.05;53.28;56974.16;5055490;28;20055;-76
2023/09/20 09:41:53;;;;;;;2.88;1.20;;;20.90;99.90;;;-144.05;52.87;56972.03;5056596;28;20497;-77
2023/09/20 09:44:21;;;;;;;2.35;1.10;;;23.00;99.90;;;-144.05;51.11;56997.50;5056910;28;20021;-78
2023/09/20 09:46:47;;;;;;;3.22;1.27;;;21.60;99.90;;;-144.05;52.54;56976.28;5056238;28;20033;-78
2023/09/20 09:49:18;;;;;;;2.05;1.00;;;19.30;99.90;;;-144.05;52.51;56974.16;5055340;28;20051;-76
2023/09/20 09:51:51;;;;;;;4.38;1.40;;;22.30;99.90;;;-144.05;52.17;56984.78;5056204;28;20119;-77
2023/09/20 09:54:21;;;;;;;3.85;1.23;;;21.20;99.90;;;-144.05;53.01;56967.78;5055042;28;20037;-78
2023/09/20 09:56:48;;;;;;;4.90;1.10;;;21.10;99.90;;;-144.05;52.53;56989.00;5056796;28;20032;-74
2023/09/20 09:59:15;;;;;;;2.42;1.10;;;22.40;99.90;;;-144.05;53.18;56982.66;5054619;28;20029;-77
2023/09/20 10:01:42;;;;;;;2.17;0.93;;;22.30;99.90;;;-144.05;54.43;56959.28;5056182;28;20031;-77
2023/09/20 10:04:13;;;;;;;1.42;0.75;;;22.70;99.90;;;-144.05;52.56;56946.53;5056193;28;20029;-77
2023/09/20 10:06:45;;;;;;;3.17;1.38;;;19.80;99.90;;;-144.05;51.38;56935.91;5055949;28;20033;-76
2023/09/20 10:09:13;;;;;;;2.13;1.13;;;19.40;99.90;;;-144.05;51.55;56965.66;5063549;28;20042;-77
2023/09/20 10:11:41;;;;;;;3.90;1.20;;;21.30;99.90;;;-144.05;51.20;56965.66;5094679;22;20087;-82
2023/09/20 10:14:10;;;;;;;5.95;1.38;;;22.10;99.90;;;-144.05;52.03;56972.03;5073405;28;20056;-82
2023/09/20 10:16:42;;;;;;;2.38;1.17;;;19.60;99.90;;;-144.05;52.07;56961.41;5079790;28;20393;-81
2023/09/20 10:19:13;;;;;;;3.00;1.42;;;21.40;99.90;;;-144.05;52.12;56967.78;5079650;28;20051;-83
2023/09/20 10:22:01;;;;;;;4.03;1.10;;;23.00;99.90;;;-144.05;52.15;56982.66;5080174;28;20024;-84
2023/09/20 10:24:29;;;;;;;5.38;1.30;;;21.30;99.90;;;-144.05;53.25;56961.41;5098339;28;20128;-83
2023/09/20 10:27:02;;;;;;;3.63;1.42;;;21.20;99.90;;;-144.05;52.82;57006.00;5085347;28;20131;-81
2023/09/20 10:29:32;;;;;;;4.32;1.40;;;21.00;99.90;;;-144.05;54.70;56982.66;5080860;28;20127;-83
2023/09/20 10:32:18;;;;;;;3.10;1.15;;;22.60;99.90;;;-144.05;54.20;56995.38;5077856;28;20061;-81
2023/09/20 10:35:33;;;;;;;4.43;1.33;;;19.20;99.90;;;-144.05;52.74;56976.28;5076385;28;20150;-81
2023/09/20 10:38:07;;;;;;;2.78;1.30;;;22.50;99.90;;;-144.05;54.65;56967.78;5077106;28;20032;-84
2023/09/20 10:40:45;;;;;;;3.13;1.42;;;20.90;99.90;;;-144.05;53.93;56976.28;5076738;28;20070;-81
2023/09/20 10:43:42;;;;;;;3.50;1.20;;;21.00;99.90;;;-144.05;52.86;56974.16;5077068;28;20029;-82
2023/09/20 10:46:18;;;;;;;3.67;1.20;;;21.00;99.90;;;-144.05;53.23;56980.53;5095719;28;20031;-81
2023/09/20 10:48:52;;;;;;;2.03;1.10;;;19.50;99.90;;;-144.05;53.06;56969.91;5070143;28;20112;-82
2023/09/20 10:51:43;;;;;;;3.38;1.25;;;21.10;99.90;;;-144.05;51.73;56997.50;5060817;28;20079;-83
2023/09/20 10:54:26;;;;;;;3.58;1.20;;;22.10;99.90;;;-144.05;53.50;56959.28;5089664;28;20066;-80
2023/09/20 10:56:52;;;;;;;4.38;1.15;;;19.20;99.90;;;-144.05;53.94;56974.16;5081276;28;20231;-81